Philipsburg, MT

11:14 AM MDT on August 30, 2014 (GMT -0600)
RAWS YANKEE FLAT MT US | Change Station
CLOSE
Current Station
Personal Weather Station
Location: Anaconda, MT
Elevation: 6000 ft
Nearby Weather Stations

Elev 6000 ft 46.16 °N, 113.14 °W | Updated 34 minutes ago

Partly Cloudy
Partly Cloudy
60 °F
Feels Like 60 °F
N
9
Wind Variable Wind from NW
Gusts 16.0 mph

Today
High -- | Low -- °F
--% Chance of Precip.
Yesterday
High -- | Low -- °F
Precip. -- in
6:51 AM 8:15 PM
Waxing Crescent, 23% visible
Pressure 29.81 in
Visibility 10.0 miles
Clouds Clear
Dew Point 41 °F
Humidity 49%
Rainfall 0.04 in
Snow Depth 1 in , 0 in , 0 in
UV 5 out of 12
Pollen 6.80 out of 12
Air Quality Not available.
Flu Activity Not available.
METAR KBTM 301653Z AUTO 00000KT 10SM CLR 15/06 A2994 RMK AO2 SLP092 T01500056

More Conditions Fewer Conditions

Pressure 29.81 in
Visibility 10.0 miles
Clouds Clear
Dew Point 41 °F
Humidity 49%
Rainfall 0.04 in
Snow Depth 1 in , 0 in , 0 in
UV 5 out of 12
Pollen 6.80 out of 12
Air Quality Not available.
Flu Activity Not available.
METAR KBTM 301653Z AUTO 00000KT 10SM CLR 15/06 A2994 RMK AO2 SLP092 T01500056

More Conditions Fewer Conditions

10-Day Weather Forecast

Almanac

Astronomy

Aug. 30, 2014 Rise Set
Actual Time 6:51 AM MDT 8:15 PM MDT
Civil Twilight 6:20 AM MDT 8:46 PM MDT
Nautical Twilight 5:42 AM MDT 9:24 PM MDT
Astronomical Twilight 5:01 AM MDT 10:04 PM MDT
Moon 12:01 PM MDT 10:33 PM MDT
Length of Visible Light 14h 26m
Length of Day
13h 24m
Tomorrow will be 3m 9s shorter.
Waxing Crescent, 23% of the Moon is Illuminated
Today
Waxing Crescent
Sep 2
First Quarter
Sep 8
Full
Sep 15
Last Quarter
Sep 24
New

Today's Extremes

State Highs State Lows

Community

WunderPhotos

Upload Photos

1,748,576 photos uploaded!

WunderBlogs® & News

Nearby

Snow Depth

Station Depth Elevation
Black Pine 1 in 7210 ft
Warm Springs 0 in 7800 ft
Combination 0 in 5600 ft
Peterson Meadows 0 in 7200 ft
Barker Lakes 0 in 8250 ft

Earthquake Activity

City Distance Mag. Time & Date
No recent earthquake activity has been reported nearby.
Minimum magnitude displayed is 2.5.

Coastal Water Temperatures

Place Temperature
No Stations Reporting

Nearby Weather Stations